createdAt,value
2022-08-09T00:00:23.292Z,98732.38
2022-08-09T00:04:00.373Z,98731.64
2022-08-09T00:06:18.098Z,98727.46
2022-08-09T00:08:47.681Z,98722.04
2022-08-09T00:11:24.797Z,98726.79
2022-08-09T00:13:53.765Z,98725.19
2022-08-09T00:16:26.284Z,98722.91
2022-08-09T00:19:09.471Z,98728.48
2022-08-09T00:21:43.258Z,98728.54
2022-08-09T00:24:24.931Z,98730.71
2022-08-09T00:26:55.901Z,98729.07
2022-08-09T00:29:39.445Z,98731.66
2022-08-09T00:32:14.157Z,98733.05
2022-08-09T00:34:54.260Z,98729.43
2022-08-09T00:37:22.385Z,98729.92
2022-08-09T00:40:09.081Z,98730.23
2022-08-09T00:44:10.304Z,98730.38
2022-08-09T00:45:28.830Z,98730.52
2022-08-09T00:47:57.201Z,98726.52
2022-08-09T00:50:25.496Z,98731.59
2022-08-09T00:52:55.431Z,98729.73
2022-08-09T00:56:03.305Z,98729.06
2022-08-09T00:58:14.829Z,98727.15
2022-08-09T01:00:53.049Z,98731.82
2022-08-09T01:03:28.641Z,98733.27
2022-08-09T01:06:17.486Z,98733.92
2022-08-09T01:08:56.856Z,98740.91
2022-08-09T01:11:36.246Z,98742.41
2022-08-09T01:14:09.929Z,98743.09
2022-08-09T01:16:47.442Z,98746.98
2022-08-09T01:19:42.565Z,98739.88
2022-08-09T01:22:52.087Z,98739.37
2022-08-09T01:25:41.717Z,98741.29
2022-08-09T01:28:11.468Z,98740.05
2022-08-09T01:30:52.128Z,98741.45
2022-08-09T01:33:27.518Z,98737.05
2022-08-09T01:36:02.780Z,98741.92
2022-08-09T01:38:36.267Z,98740.85
2022-08-09T01:41:15.550Z,98740.76
2022-08-09T01:43:52.039Z,98737.52
2022-08-09T01:46:26.853Z,98738.20
2022-08-09T01:48:59.835Z,98737.96
2022-08-09T01:51:32.303Z,98739.48
2022-08-09T01:54:03.993Z,98739.98
2022-08-09T01:56:34.948Z,98738.83
2022-08-09T01:59:09.872Z,98741.67
2022-08-09T02:01:58.968Z,98739.35
2022-08-09T02:04:33.280Z,98738.58
2022-08-09T02:07:17.770Z,98739.77
2022-08-09T02:09:59.456Z,98741.38
2022-08-09T02:12:32.265Z,98745.00
2022-08-09T02:15:06.350Z,98745.46
2022-08-09T02:18:00.176Z,98747.01
2022-08-09T02:20:32.822Z,98741.95
2022-08-09T02:23:08.250Z,98741.32
2022-08-09T02:25:41.932Z,98742.80
2022-08-09T02:28:18.101Z,98744.99
2022-08-09T02:30:50.282Z,98747.58
2022-08-09T02:33:37.725Z,98749.95
2022-08-09T02:36:17.407Z,98747.78
2022-08-09T02:38:50.638Z,98742.03
2022-08-09T02:41:26.380Z,98744.07
2022-08-09T02:43:58.269Z,98740.46
2022-08-09T02:46:31.272Z,98743.25
2022-08-09T02:49:05.455Z,98743.19
2022-08-09T02:51:40.600Z,98744.91
2022-08-09T02:54:13.951Z,98755.15
2022-08-09T02:56:51.218Z,98749.77
2022-08-09T02:59:26.658Z,98752.01
2022-08-09T03:02:07.312Z,98746.23
2022-08-09T03:04:41.441Z,98746.92
2022-08-09T03:07:13.787Z,98745.23
2022-08-09T03:09:54.410Z,98750.33
2022-08-09T03:12:25.997Z,98749.36
2022-08-09T03:14:56.140Z,98750.64
2022-08-09T03:17:26.775Z,98755.48
2022-08-09T03:20:03.534Z,98759.27
2022-08-09T03:22:45.823Z,98760.48
2022-08-09T03:25:57.715Z,98758.46
2022-08-09T03:28:15.869Z,98756.02
2022-08-09T03:30:46.393Z,98759.95
2022-08-09T03:33:19.424Z,98760.95
2022-08-09T03:36:13.287Z,98760.05
2022-08-09T03:38:41.974Z,98758.09
2022-08-09T03:41:15.259Z,98758.66
2022-08-09T03:44:03.285Z,98755.05
2022-08-09T03:46:34.932Z,98759.36
2022-08-09T03:49:09.027Z,98761.61
2022-08-09T03:51:56.040Z,98762.35
2022-08-09T03:54:31.791Z,98760.02
2022-08-09T03:57:04.551Z,98755.08
2022-08-09T03:59:53.410Z,98756.45
2022-08-09T04:02:26.561Z,98753.87
2022-08-09T04:04:55.139Z,98753.02
2022-08-09T04:07:23.286Z,98756.20
2022-08-09T04:10:11.373Z,98757.61
2022-08-09T04:12:46.896Z,98757.42
2022-08-09T04:15:38.914Z,98754.58
2022-08-09T04:18:08.516Z,98750.55
2022-08-09T04:20:36.678Z,98752.01
2022-08-09T04:23:10.090Z,98754.48
2022-08-09T04:25:49.834Z,98751.84
2022-08-09T04:28:31.481Z,98747.73
2022-08-09T04:31:08.016Z,98749.69
2022-08-09T04:33:51.980Z,98748.88
2022-08-09T04:36:24.235Z,98745.93
2022-08-09T04:38:53.186Z,98747.04
2022-08-09T04:41:23.770Z,98749.16
2022-08-09T04:44:05.588Z,98754.35
2022-08-09T04:46:38.270Z,98758.59
2022-08-09T04:49:40.885Z,98762.59
2022-08-09T04:52:12.574Z,98765.15
2022-08-09T04:54:51.052Z,98769.09
2022-08-09T04:57:21.437Z,98767.02
2022-08-09T04:59:53.834Z,98767.59
2022-08-09T05:02:22.481Z,98770.75
2022-08-09T05:04:55.222Z,98771.56
2022-08-09T05:07:24.691Z,98771.67
2022-08-09T05:09:55.959Z,98773.37
2022-08-09T05:12:24.202Z,98778.69
2022-08-09T05:14:52.268Z,98778.27
2022-08-09T05:18:50.675Z,98777.27
2022-08-09T05:20:10.403Z,98780.17
2022-08-09T05:23:56.851Z,98778.79
2022-08-09T05:25:28.319Z,98776.11
2022-08-09T05:28:00.759Z,98778.40
2022-08-09T05:30:29.896Z,98777.63
2022-08-09T05:33:00.060Z,98780.05
2022-08-09T05:35:29.936Z,98783.24
2022-08-09T05:37:59.290Z,98782.27
2022-08-09T05:40:28.067Z,98780.67
2022-08-09T05:42:57.013Z,98783.33
2022-08-09T05:45:25.486Z,98786.59
2022-08-09T05:48:11.688Z,98784.31
2022-08-09T05:50:57.035Z,98787.69
2022-08-09T05:53:33.373Z,98788.27
2022-08-09T05:56:02.273Z,98790.42
2022-08-09T05:58:30.389Z,98786.88
2022-08-09T06:00:59.117Z,98788.16
2022-08-09T06:03:34.902Z,98787.56
2022-08-09T06:06:13.211Z,98789.29
2022-08-09T06:08:41.613Z,98788.20
2022-08-09T06:11:16.519Z,98788.02
2022-08-09T06:13:47.460Z,98794.42
2022-08-09T06:16:14.892Z,98792.30
2022-08-09T06:18:44.600Z,98797.46
2022-08-09T06:21:12.725Z,98804.28
2022-08-09T06:23:57.995Z,98803.86
2022-08-09T06:26:30.533Z,98801.06
2022-08-09T06:29:05.039Z,98800.23
2022-08-09T06:31:40.049Z,98797.38
2022-08-09T06:34:25.941Z,98798.71
2022-08-09T06:36:59.456Z,98799.73
2022-08-09T06:39:48.721Z,98794.80
2022-08-09T06:42:19.789Z,98797.86
2022-08-09T06:45:00.052Z,98798.55
2022-08-09T06:47:29.941Z,98801.19
2022-08-09T06:50:13.525Z,98796.23
2022-08-09T06:52:48.801Z,98799.59
2022-08-09T06:55:19.029Z,98799.98
2022-08-09T06:58:02.721Z,98801.33
2022-08-09T07:00:50.100Z,98800.93
2022-08-09T07:03:27.969Z,98802.83
2022-08-09T07:06:04.114Z,98806.02
2022-08-09T07:08:35.256Z,98812.80
2022-08-09T07:11:06.560Z,98813.89
2022-08-09T07:13:45.388Z,98816.64
2022-08-09T07:16:41.403Z,98814.55
2022-08-09T07:19:15.777Z,98813.90
2022-08-09T07:21:56.046Z,98815.46
2022-08-09T07:24:32.390Z,98817.51
2022-08-09T07:27:11.146Z,98819.50
2022-08-09T07:29:56.963Z,98817.95
2022-08-09T07:32:32.434Z,98821.02
2022-08-09T07:35:07.887Z,98816.89
2022-08-09T07:37:42.769Z,98816.00
2022-08-09T07:40:17.683Z,98820.48
2022-08-09T07:42:54.520Z,98822.51
2022-08-09T07:45:39.244Z,98823.20
2022-08-09T07:48:25.742Z,98827.83
2022-08-09T07:51:10.244Z,98830.35
2022-08-09T07:54:05.618Z,98835.22
2022-08-09T07:56:44.876Z,98838.20
2022-08-09T07:59:34.714Z,98835.84
2022-08-09T08:02:09.149Z,98839.27
2022-08-09T08:04:38.462Z,98839.69
2022-08-09T08:07:09.565Z,98837.73
2022-08-09T08:10:08.985Z,98834.63
2022-08-09T08:12:43.505Z,98839.91
2022-08-09T08:15:16.413Z,98837.08
2022-08-09T08:17:55.111Z,98837.70
2022-08-09T08:20:32.360Z,98838.98
2022-08-09T08:23:17.134Z,98841.98
2022-08-09T08:25:50.327Z,98848.12
2022-08-09T08:28:35.393Z,98845.95
2022-08-09T08:31:13.879Z,98843.36
2022-08-09T08:33:53.757Z,98843.41
2022-08-09T08:36:29.208Z,98843.50
2022-08-09T08:38:58.496Z,98851.33
2022-08-09T08:41:41.810Z,98849.36
2022-08-09T08:44:26.853Z,98848.14
2022-08-09T08:47:03.304Z,98846.32
2022-08-09T08:49:47.840Z,98848.09
2022-08-09T08:52:52.742Z,98849.55
2022-08-09T08:55:09.479Z,98849.68
2022-08-09T08:57:38.167Z,98845.27
2022-08-09T09:00:17.154Z,98843.33
2022-08-09T09:02:52.628Z,98847.85
2022-08-09T09:05:33.155Z,98849.02
2022-08-09T09:08:30.098Z,98839.87
2022-08-09T09:11:03.818Z,98842.21
2022-08-09T09:13:47.365Z,98842.63
2022-08-09T09:16:33.721Z,98845.91
2022-08-09T09:22:04.345Z,98840.33
2022-08-09T09:24:38.020Z,98840.48
2022-08-09T09:27:09.322Z,98842.77
2022-08-09T09:30:14.151Z,98846.02
2022-08-09T09:33:00.204Z,98847.27
2022-08-09T09:35:29.649Z,98848.58
2022-08-09T09:38:01.467Z,98850.52
2022-08-09T09:40:42.632Z,98856.38
2022-08-09T09:43:21.699Z,98846.00
2022-08-09T09:46:39.562Z,98848.40
2022-08-09T09:48:56.882Z,98844.39
2022-08-09T09:51:37.970Z,98841.02
2022-08-09T09:54:20.523Z,98838.98
2022-08-09T09:56:53.334Z,98840.94
2022-08-09T09:59:38.341Z,98835.20
2022-08-09T10:02:06.922Z,98838.85
2022-08-09T10:04:36.577Z,98835.98
2022-08-09T10:07:10.111Z,98836.39
2022-08-09T10:09:49.031Z,98833.73
2022-08-09T10:12:31.272Z,98829.85
2022-08-09T10:15:17.464Z,98829.34
2022-08-09T10:18:11.272Z,98826.09
2022-08-09T10:20:45.198Z,98818.67
2022-08-09T10:23:20.407Z,98819.54
2022-08-09T10:26:06.218Z,98823.26
2022-08-09T10:28:38.225Z,98825.90
2022-08-09T10:34:10.761Z,98820.02
2022-08-09T10:36:45.285Z,98821.80
2022-08-09T10:39:19.167Z,98825.62
2022-08-09T10:41:48.314Z,98824.34
2022-08-09T10:44:21.770Z,98826.23
2022-08-09T10:48:12.118Z,98821.31
2022-08-09T10:50:16.968Z,98820.94
2022-08-09T10:53:05.174Z,98823.92
2022-08-09T10:55:57.931Z,98821.59
2022-08-09T10:58:31.572Z,98818.06
2022-08-09T11:03:03.019Z,98813.90
2022-08-09T11:04:28.133Z,98815.71
2022-08-09T11:07:26.912Z,98815.65
2022-08-09T11:10:15.408Z,98812.19
2022-08-09T11:13:51.255Z,98811.94
2022-08-09T11:16:37.805Z,98806.83
2022-08-09T11:19:09.413Z,98802.77
2022-08-09T11:22:16.892Z,98805.46
2022-08-09T11:25:08.122Z,98808.84
2022-08-09T11:28:04.835Z,98807.09
2022-08-09T11:30:36.185Z,98798.51
2022-08-09T11:33:10.419Z,98806.94
2022-08-09T11:35:50.218Z,98808.02
2022-08-09T11:38:32.688Z,98799.94
2022-08-09T11:41:38.019Z,98802.20
2022-08-09T11:44:08.899Z,98805.60
2022-08-09T11:46:54.195Z,98797.65
2022-08-09T11:50:56.819Z,98807.48
2022-08-09T11:54:00.518Z,98809.27
2022-08-09T11:56:41.928Z,98812.52
2022-08-09T11:59:30.585Z,98810.36
2022-08-09T12:02:17.045Z,98808.58
2022-08-09T12:04:46.703Z,98805.70
2022-08-09T12:07:15.416Z,98805.42
2022-08-09T12:09:50.937Z,98803.06
2022-08-09T12:12:28.838Z,98797.89
2022-08-09T12:15:07.933Z,98794.10
2022-08-09T12:17:43.336Z,98795.75
2022-08-09T12:20:21.394Z,98792.74
2022-08-09T12:22:56.107Z,98799.13
2022-08-09T12:25:35.914Z,98795.79
2022-08-09T12:29:12.150Z,98790.67
2022-08-09T12:30:59.688Z,98791.33
2022-08-09T12:33:51.074Z,98793.14
2022-08-09T12:36:31.855Z,98792.23
2022-08-09T12:39:02.389Z,98795.70
2022-08-09T12:41:38.083Z,98786.84
2022-08-09T12:44:10.388Z,98791.73
2022-08-09T12:46:49.067Z,98793.09
2022-08-09T12:49:18.842Z,98798.52
2022-08-09T12:52:02.236Z,98801.20
2022-08-09T12:56:02.349Z,98801.75
2022-08-09T12:57:39.773Z,98802.73
2022-08-09T13:00:17.248Z,98804.68
2022-08-09T13:02:53.442Z,98799.92
2022-08-09T13:05:25.316Z,98794.90
2022-08-09T13:08:14.735Z,98793.77
2022-08-09T13:10:52.503Z,98793.51
2022-08-09T13:13:38.230Z,98794.33
2022-08-09T13:16:20.806Z,98794.45
2022-08-09T13:18:53.769Z,98794.15
2022-08-09T13:22:38.384Z,98794.23
2022-08-09T13:24:42.188Z,98794.41
2022-08-09T13:27:06.082Z,98797.09
2022-08-09T13:30:02.704Z,98789.46
2022-08-09T13:32:28.954Z,98786.05
2022-08-09T13:34:57.405Z,98787.71
2022-08-09T13:37:50.549Z,98786.55
2022-08-09T13:41:55.140Z,98785.98
2022-08-09T13:43:05.306Z,98783.02
2022-08-09T13:46:43.633Z,98784.09
2022-08-09T13:48:26.788Z,98783.60
2022-08-09T13:50:58.465Z,98780.46
2022-08-09T13:53:29.217Z,98781.36
2022-08-09T13:56:12.232Z,98783.11
2022-08-09T13:58:40.705Z,98778.50
2022-08-09T14:01:13.516Z,98777.91
2022-08-09T14:04:02.985Z,98779.70
2022-08-09T14:06:36.911Z,98778.89
2022-08-09T14:09:08.544Z,98781.58
2022-08-09T14:11:47.318Z,98788.39
2022-08-09T14:14:25.778Z,98784.08
2022-08-09T14:16:56.147Z,98784.34
2022-08-09T14:19:24.718Z,98783.90
2022-08-09T14:21:53.086Z,98783.45
2022-08-09T14:24:32.199Z,98785.05
2022-08-09T14:27:02.202Z,98782.60
2022-08-09T14:30:36.360Z,98785.98
2022-08-09T14:32:20.028Z,98786.64
2022-08-09T14:34:58.986Z,98785.04
2022-08-09T14:37:28.351Z,98783.23
2022-08-09T14:40:11.441Z,98786.78
2022-08-09T14:42:41.345Z,98786.23
2022-08-09T14:46:58.754Z,98783.41
2022-08-09T14:48:02.460Z,98782.73
2022-08-09T14:50:31.126Z,98780.01
2022-08-09T14:53:00.626Z,98781.20
2022-08-09T14:55:29.055Z,98778.02
2022-08-09T14:58:03.025Z,98779.13
2022-08-09T15:00:31.708Z,98778.02
2022-08-09T15:03:00.123Z,98776.44
2022-08-09T15:05:29.576Z,98778.89
2022-08-09T15:07:59.031Z,98775.92
2022-08-09T15:10:28.704Z,98775.23
2022-08-09T15:13:01.558Z,98774.42
2022-08-09T15:15:34.478Z,98771.27
2022-08-09T15:18:12.419Z,98775.85
2022-08-09T15:21:57.605Z,98771.73
2022-08-09T15:24:01.904Z,98772.75
2022-08-09T15:26:31.412Z,98772.73
2022-08-09T15:29:04.240Z,98771.83
2022-08-09T15:31:41.884Z,98774.81
2022-08-09T15:34:32.769Z,98778.38
2022-08-09T15:37:00.116Z,98773.20
2022-08-09T15:39:44.039Z,98781.39
2022-08-09T15:42:20.485Z,98780.70
2022-08-09T15:44:50.397Z,98784.50
2022-08-09T15:47:22.500Z,98781.93
2022-08-09T15:50:04.885Z,98783.90
2022-08-09T15:52:34.672Z,98779.13
2022-08-09T15:55:03.662Z,98778.02
2022-08-09T15:57:35.662Z,98778.52
2022-08-09T16:00:21.889Z,98777.96
2022-08-09T16:02:56.273Z,98777.17
2022-08-09T16:05:47.096Z,98779.36
2022-08-09T16:08:30.933Z,98777.41
2022-08-09T16:11:01.607Z,98774.96
2022-08-09T16:14:03.510Z,98778.52
2022-08-09T16:16:19.216Z,98776.27
2022-08-09T16:18:47.770Z,98780.86
2022-08-09T16:21:17.748Z,98781.56
2022-08-09T16:23:58.336Z,98778.64
2022-08-09T16:26:33.527Z,98782.86
2022-08-09T16:29:06.078Z,98781.88
2022-08-09T16:32:18.111Z,98780.23
2022-08-09T16:34:55.196Z,98779.70
2022-08-09T16:37:19.526Z,98780.62
2022-08-09T16:40:12.146Z,98780.27
2022-08-09T16:42:44.998Z,98778.20
2022-08-09T16:45:19.135Z,98778.74
2022-08-09T16:48:43.280Z,98779.16
2022-08-09T16:50:38.398Z,98782.41
2022-08-09T16:53:08.950Z,98778.67
2022-08-09T16:56:00.579Z,98780.18
2022-08-09T16:58:55.774Z,98779.88
2022-08-09T17:01:35.450Z,98783.44
2022-08-09T17:04:06.890Z,98786.17
2022-08-09T17:07:04.817Z,98787.11
2022-08-09T17:09:45.708Z,98788.83
2022-08-09T17:12:13.426Z,98785.91
2022-08-09T17:14:47.944Z,98783.59
2022-08-09T17:17:26.626Z,98784.52
2022-08-09T17:20:28.710Z,98789.34
2022-08-09T17:22:49.741Z,98792.55
2022-08-09T17:25:19.101Z,98791.92
2022-08-09T17:27:49.413Z,98791.77
2022-08-09T17:30:25.730Z,98791.98
2022-08-09T17:33:00.551Z,98794.62
2022-08-09T17:35:35.710Z,98795.61
2022-08-09T17:38:13.271Z,98799.85
2022-08-09T17:40:52.698Z,98801.77
2022-08-09T17:43:34.588Z,98801.46
2022-08-09T17:46:08.800Z,98801.72
2022-08-09T17:48:40.482Z,98804.23
2022-08-09T17:51:21.433Z,98804.51
2022-08-09T17:53:52.790Z,98808.27
2022-08-09T17:56:26.629Z,98808.65
2022-08-09T17:58:58.664Z,98809.81
2022-08-09T18:01:57.863Z,98813.14
2022-08-09T18:04:19.613Z,98817.56
2022-08-09T18:06:54.368Z,98821.52
2022-08-09T18:09:24.987Z,98822.98
2022-08-09T18:12:14.638Z,98827.80
2022-08-09T18:14:53.334Z,98834.46
2022-08-09T18:17:27.539Z,98836.46
2022-08-09T18:20:54.657Z,98838.48
2022-08-09T18:23:05.115Z,98838.86
2022-08-09T18:25:50.526Z,98842.25
2022-08-09T18:30:41.056Z,98844.45
2022-08-09T18:31:12.216Z,98846.46
2022-08-09T18:33:40.819Z,98846.52
2022-08-09T18:36:14.086Z,98850.00
2022-08-09T18:38:44.004Z,98853.08
2022-08-09T18:41:16.534Z,98855.08
2022-08-09T18:43:53.256Z,98850.13
2022-08-09T18:46:50.300Z,98852.97
2022-08-09T18:49:20.296Z,98856.52
2022-08-09T18:51:55.306Z,98858.61
2022-08-09T18:54:28.427Z,98858.83
2022-08-09T18:56:56.669Z,98862.77
2022-08-09T18:59:37.594Z,98863.73
2022-08-09T19:02:18.504Z,98862.14
2022-08-09T19:05:03.815Z,98862.96
2022-08-09T19:07:36.940Z,98863.46
2022-08-09T19:10:14.197Z,98863.02
2022-08-09T19:12:59.531Z,98865.79
2022-08-09T19:15:36.137Z,98865.47
2022-08-09T19:18:17.294Z,98867.33
2022-08-09T19:20:56.921Z,98867.09
2022-08-09T19:24:32.015Z,98868.39
2022-08-09T19:26:16.909Z,98865.49
2022-08-09T19:28:48.985Z,98866.08
2022-08-09T19:31:17.773Z,98867.69
2022-08-09T19:33:46.537Z,98869.80
2022-08-09T19:36:19.955Z,98871.45
2022-08-09T19:38:51.759Z,98872.75
2022-08-09T19:41:33.338Z,98873.83
2022-08-09T19:44:04.770Z,98871.79
2022-08-09T19:46:35.631Z,98870.54
2022-08-09T19:50:09.514Z,98869.71
2022-08-09T19:52:00.212Z,98866.11
2022-08-09T19:54:30.170Z,98864.81
2022-08-09T19:56:58.834Z,98865.91
2022-08-09T19:59:58.269Z,98868.73
2022-08-09T20:04:10.570Z,98865.95
2022-08-09T20:05:10.120Z,98866.84
2022-08-09T20:07:59.545Z,98871.84
2022-08-09T20:10:37.161Z,98872.80
2022-08-09T20:13:09.683Z,98872.23
2022-08-09T20:16:33.028Z,98875.05
2022-08-09T20:18:27.609Z,98881.42
2022-08-09T20:20:57.773Z,98880.70
2022-08-09T20:23:38.571Z,98878.20
2022-08-09T20:26:09.326Z,98879.36
2022-08-09T20:28:48.812Z,98880.27
2022-08-09T20:31:19.165Z,98879.28
2022-08-09T20:33:52.530Z,98875.38
2022-08-09T20:36:27.590Z,98877.48
2022-08-09T20:39:29.155Z,98878.89
2022-08-09T20:41:45.049Z,98878.30
2022-08-09T20:44:17.463Z,98885.86
2022-08-09T20:46:55.636Z,98882.41
2022-08-09T20:49:26.827Z,98885.53
2022-08-09T20:51:57.413Z,98886.17
2022-08-09T20:54:29.211Z,98885.12
2022-08-09T20:56:58.417Z,98887.64
2022-08-09T21:00:19.322Z,98886.18
2022-08-09T21:02:17.402Z,98891.65
2022-08-09T21:05:51.767Z,98889.41
2022-08-09T21:07:40.701Z,98889.81
2022-08-09T21:10:12.542Z,98892.23
2022-08-09T21:15:34.586Z,98899.91
2022-08-09T21:18:24.062Z,98895.68
2022-08-09T21:20:54.101Z,98897.31
2022-08-09T21:23:26.530Z,98899.80
2022-08-09T21:26:11.579Z,98899.36
2022-08-09T21:28:40.298Z,98899.67
2022-08-09T21:31:24.287Z,98904.58
2022-08-09T21:34:13.204Z,98905.65
2022-08-09T21:36:55.449Z,98906.12
2022-08-09T21:39:28.285Z,98905.02
2022-08-09T21:42:15.325Z,98906.91
2022-08-09T21:44:44.144Z,98904.16
2022-08-09T21:47:17.349Z,98903.95
2022-08-09T21:49:48.860Z,98901.87
2022-08-09T21:52:20.627Z,98904.41
2022-08-09T21:55:03.690Z,98902.48
2022-08-09T21:57:36.928Z,98899.19
2022-08-09T22:00:12.469Z,98898.77
2022-08-09T22:02:43.718Z,98898.89
2022-08-09T22:05:23.829Z,98899.91
2022-08-09T22:08:07.108Z,98896.05
2022-08-09T22:11:49.742Z,98895.89
2022-08-09T22:13:31.410Z,98893.80
2022-08-09T22:16:07.716Z,98895.73
2022-08-09T22:18:37.830Z,98892.63
2022-08-09T22:21:10.040Z,98894.38
2022-08-09T22:23:59.432Z,98894.05
2022-08-09T22:26:34.123Z,98892.06
2022-08-09T22:29:05.387Z,98893.33
2022-08-09T22:31:36.346Z,98887.83
2022-08-09T22:34:09.716Z,98888.30
2022-08-09T22:36:46.413Z,98890.10
2022-08-09T22:39:20.812Z,98888.65
2022-08-09T22:42:21.276Z,98889.17
2022-08-09T22:45:00.468Z,98881.22
2022-08-09T22:48:13.938Z,98885.40
2022-08-09T22:50:32.540Z,98882.92
2022-08-09T22:53:03.293Z,98882.77
2022-08-09T22:56:06.541Z,98882.73
2022-08-09T22:58:32.794Z,98885.82
2022-08-09T23:01:02.631Z,98891.23
2022-08-09T23:04:03.744Z,98888.05
2022-08-09T23:06:32.664Z,98886.73
2022-08-09T23:09:06.242Z,98886.14
2022-08-09T23:11:34.535Z,98887.06
2022-08-09T23:14:03.803Z,98890.60
2022-08-09T23:16:32.553Z,98886.65
2022-08-09T23:19:01.103Z,98886.70
2022-08-09T23:21:34.577Z,98882.07
2022-08-09T23:24:07.263Z,98886.83
2022-08-09T23:26:36.579Z,98883.48
2022-08-09T23:29:06.302Z,98879.69
2022-08-09T23:31:34.567Z,98884.11
2022-08-09T23:34:03.985Z,98883.92
2022-08-09T23:36:32.916Z,98890.95
2022-08-09T23:39:01.820Z,98889.46
2022-08-09T23:41:30.145Z,98890.06
2022-08-09T23:43:59.609Z,98886.91
2022-08-09T23:46:29.040Z,98886.38
2022-08-09T23:48:57.942Z,98885.90
2022-08-09T23:51:26.956Z,98884.36
2022-08-09T23:54:02.390Z,98881.98
2022-08-09T23:56:53.723Z,98886.58
2022-08-09T23:59:21.448Z,98886.17
